Time;durP1;ratioP1;P1;durP2;ratioP2;P2;SDS_P1;SDS_P2;PMS_P1;PMS_P2;Temp;Humidity;BMP_temperature;BMP_pressure;BME280_temperature;BME280_humidity;BME280_pressure;Samples;Min_cycle;Max_cycle;Signal;HPM_P1;HPM_P2
2021/12/31 00:02:01;;;;;;;12.43;8.00;;;;;;;-141.29;100.00;58932.97;5073287;28;20899;-75
2021/12/31 00:04:28;;;;;;;11.37;7.37;;;;;;;-141.29;100.00;58932.97;5072250;28;20475;-74
2021/12/31 00:06:55;;;;;;;13.97;9.07;;;;;;;-141.29;100.00;58932.97;5073465;28;20447;-75
2021/12/31 00:09:24;;;;;;;12.03;8.50;;;;;;;-141.29;100.00;58932.97;5073375;28;20446;-74
2021/12/31 00:11:51;;;;;;;12.20;7.47;;;;;;;-141.29;100.00;58932.97;5073448;28;20435;-74
2021/12/31 00:14:23;;;;;;;13.43;8.27;;;;;;;-141.29;100.00;58932.97;5072008;28;20439;-74
2021/12/31 00:16:52;;;;;;;15.50;8.63;;;;;;;-141.29;100.00;58932.97;5073415;28;20446;-73
2021/12/31 00:19:21;;;;;;;13.50;8.47;;;;;;;-141.29;100.00;58932.97;5073281;28;20500;-75
2021/12/31 00:21:51;;;;;;;13.60;8.70;;;;;;;-141.29;100.00;58932.97;5072911;28;20545;-74
2021/12/31 00:24:21;;;;;;;12.97;8.53;;;;;;;-141.29;100.00;58932.97;5072981;28;20439;-75
2021/12/31 00:26:51;;;;;;;13.20;8.40;;;;;;;-141.29;100.00;58932.97;5072739;28;20942;-74
2021/12/31 00:29:19;;;;;;;18.70;10.53;;;;;;;-141.29;100.00;58932.97;5072911;28;20475;-75
2021/12/31 00:31:46;;;;;;;14.57;9.00;;;;;;;-141.29;100.00;58932.97;5073674;28;20512;-73
2021/12/31 00:34:14;;;;;;;16.07;9.80;;;;;;;-141.29;100.00;58932.97;5073310;28;20518;-76
2021/12/31 00:36:42;;;;;;;14.97;8.93;;;;;;;-141.29;100.00;58932.97;5072693;28;20530;-76
2021/12/31 00:39:10;;;;;;;14.17;8.77;;;;;;;-141.29;100.00;58932.97;5072993;28;20512;-74
2021/12/31 00:41:43;;;;;;;17.00;9.60;;;;;;;-141.29;100.00;58932.97;5072649;28;20540;-75
2021/12/31 00:44:10;;;;;;;13.77;9.00;;;;;;;-141.29;100.00;58932.97;5072829;28;20802;-74
2021/12/31 00:46:38;;;;;;;13.77;9.17;;;;;;;-141.29;100.00;58932.97;5073519;28;20446;-73
2021/12/31 00:49:06;;;;;;;14.03;8.87;;;;;;;-141.29;100.00;58932.97;5078933;28;20499;-73
2021/12/31 00:51:36;;;;;;;17.70;9.33;;;;;;;-141.29;100.00;58932.97;5075190;28;20446;-76
2021/12/31 00:54:03;;;;;;;18.50;10.57;;;;;;;-141.29;100.00;58932.97;5072941;28;20895;-76
2021/12/31 00:56:30;;;;;;;17.23;10.60;;;;;;;-141.29;100.00;58932.97;5072042;28;20446;-75
2021/12/31 00:58:58;;;;;;;17.97;10.27;;;;;;;-141.29;100.00;58932.97;5072940;28;20434;-77
2021/12/31 01:01:27;;;;;;;14.60;9.33;;;;;;;-141.29;100.00;58932.97;5072468;28;20486;-76
2021/12/31 01:03:55;;;;;;;19.80;10.77;;;;;;;-141.29;100.00;58932.97;5072528;28;20446;-75
2021/12/31 01:06:24;;;;;;;16.70;10.40;;;;;;;-141.29;100.00;58932.97;5072908;28;20442;-74
2021/12/31 01:08:52;;;;;;;18.03;10.83;;;;;;;-141.29;100.00;58932.97;5072722;28;21038;-76
2021/12/31 01:11:19;;;;;;;17.77;11.37;;;;;;;-141.29;100.00;58932.97;5072614;28;20860;-76
2021/12/31 01:13:54;;;;;;;18.77;10.37;;;;;;;-141.29;100.00;58932.97;5072447;28;20443;-75
2021/12/31 01:16:25;;;;;;;15.63;9.80;;;;;;;-141.29;100.00;58932.97;5072837;28;20472;-74
2021/12/31 01:21:37;;;;;;;16.23;9.43;;;;;;;-141.29;100.00;58932.97;5072182;28;20481;-74
2021/12/31 01:24:11;;;;;;;19.23;10.70;;;;;;;-141.29;100.00;58932.97;5070735;28;20443;-73
2021/12/31 01:26:37;;;;;;;18.43;10.70;;;;;;;-141.29;100.00;58932.97;5072173;28;20521;-75
2021/12/31 01:29:05;;;;;;;17.00;10.57;;;;;;;-141.29;100.00;58932.97;5072062;28;20439;-75
2021/12/31 01:31:34;;;;;;;18.57;11.47;;;;;;;-141.29;100.00;58932.97;5072000;28;20498;-74
2021/12/31 01:34:02;;;;;;;17.10;10.50;;;;;;;-141.29;100.00;58932.97;5071864;28;20439;-74
2021/12/31 01:36:31;;;;;;;18.30;10.93;;;;;;;-141.29;100.00;58932.97;5071579;28;20526;-75
2021/12/31 01:39:01;;;;;;;17.27;10.50;;;;;;;-141.29;100.00;58932.97;5072099;28;20957;-75
2021/12/31 01:41:35;;;;;;;14.77;9.27;;;;;;;-141.29;100.00;58932.97;5075985;28;20572;-74
2021/12/31 01:44:07;;;;;;;17.30;9.90;;;;;;;-141.29;100.00;58932.97;5071567;28;20500;-75
2021/12/31 01:46:39;;;;;;;19.70;10.57;;;;;;;-141.29;100.00;58932.97;5071873;28;20492;-76
2021/12/31 01:49:18;;;;;;;16.77;8.77;;;;;;;-141.29;100.00;58932.97;5071651;28;20471;-72
2021/12/31 01:51:46;;;;;;;16.70;9.23;;;;;;;-141.29;100.00;58932.97;5072223;28;20525;-74
2021/12/31 01:54:14;;;;;;;14.23;9.07;;;;;;;-141.29;100.00;58932.97;5071763;28;20447;-73
2021/12/31 01:56:44;;;;;;;15.00;8.73;;;;;;;-141.29;100.00;58932.97;5071399;28;20508;-74
2021/12/31 01:59:13;;;;;;;16.23;9.67;;;;;;;-141.29;100.00;58932.97;5071580;28;20811;-75
2021/12/31 02:01:41;;;;;;;15.70;9.07;;;;;;;-141.29;100.00;58932.97;5071609;28;20536;-74
2021/12/31 02:04:09;;;;;;;12.33;7.90;;;;;;;-141.29;100.00;58932.97;5076854;28;20532;-74
2021/12/31 02:06:36;;;;;;;13.93;8.33;;;;;;;-141.29;100.00;58932.97;5071868;28;20466;-75
2021/12/31 02:09:06;;;;;;;13.47;8.47;;;;;;;-141.29;100.00;58932.97;5070611;28;20523;-76
2021/12/31 02:11:34;;;;;;;13.47;7.63;;;;;;;-141.29;100.00;58932.97;5070456;28;20448;-75
2021/12/31 02:14:06;;;;;;;15.07;8.40;;;;;;;-141.29;100.00;58932.97;5071098;28;20450;-75
2021/12/31 02:16:38;;;;;;;12.90;7.50;;;;;;;-141.29;100.00;58932.97;5071358;28;20443;-74
2021/12/31 02:19:12;;;;;;;15.47;8.37;;;;;;;-141.29;100.00;58932.97;5071465;28;20450;-74
2021/12/31 02:21:45;;;;;;;11.47;7.23;;;;;;;-141.29;100.00;58932.97;5071383;28;20475;-74
2021/12/31 02:24:13;;;;;;;11.27;6.70;;;;;;;-141.29;100.00;58932.97;5072049;28;20961;-77
2021/12/31 02:26:42;;;;;;;11.90;7.43;;;;;;;-141.29;100.00;58932.97;5071343;28;20454;-74
2021/12/31 02:29:10;;;;;;;10.57;7.00;;;;;;;-141.29;100.00;58932.97;5071329;28;20482;-76
2021/12/31 02:31:37;;;;;;;11.47;7.00;;;;;;;-141.29;100.00;58932.97;5071502;28;20438;-74
2021/12/31 02:34:05;;;;;;;12.93;7.10;;;;;;;-141.29;100.00;58932.97;5071327;28;20438;-75
2021/12/31 02:36:33;;;;;;;11.97;7.70;;;;;;;-141.29;100.00;58932.97;5071166;28;20450;-75
2021/12/31 02:39:05;;;;;;;10.90;6.43;;;;;;;-141.29;100.00;58932.97;5070760;28;21040;-73
2021/12/31 02:41:32;;;;;;;10.10;6.97;;;;;;;-141.29;100.00;58932.97;5071663;28;20485;-74
2021/12/31 02:43:59;;;;;;;9.73;5.97;;;;;;;-141.29;100.00;58932.97;5071198;28;21006;-74
2021/12/31 02:46:31;;;;;;;9.67;6.27;;;;;;;-141.29;100.00;58932.97;5071497;28;20438;-75
2021/12/31 02:49:00;;;;;;;10.47;6.47;;;;;;;-141.29;100.00;58932.97;5072489;28;20446;-74
2021/12/31 02:51:30;;;;;;;13.23;6.67;;;;;;;-141.29;100.00;58932.97;5073839;28;20435;-74
2021/12/31 02:54:06;;;;;;;9.23;6.10;;;;;;;-141.29;100.00;58932.97;5074744;28;20999;-73
2021/12/31 02:56:36;;;;;;;9.80;5.97;;;;;;;-141.29;100.00;58932.97;5075059;28;20441;-74
2021/12/31 02:59:05;;;;;;;11.63;6.70;;;;;;;-141.29;100.00;58932.97;5074492;28;20519;-74
2021/12/31 03:01:35;;;;;;;10.23;6.30;;;;;;;-141.29;100.00;58932.97;5074294;28;20585;-75
2021/12/31 03:04:05;;;;;;;10.50;6.77;;;;;;;-141.29;100.00;58932.97;5074710;28;20804;-74
2021/12/31 03:06:34;;;;;;;11.57;6.70;;;;;;;-141.29;100.00;58932.97;5073470;28;20478;-76
2021/12/31 03:09:07;;;;;;;10.40;6.83;;;;;;;-141.29;100.00;58932.97;5074386;28;20454;-74
2021/12/31 03:11:34;;;;;;;11.73;6.80;;;;;;;-141.29;100.00;58932.97;5073945;28;20450;-76
2021/12/31 03:14:02;;;;;;;9.17;6.30;;;;;;;-141.29;100.00;58932.97;5074206;28;20500;-75
2021/12/31 03:16:53;;;;;;;8.93;6.10;;;;;;;-141.29;100.00;58932.97;5074188;28;20447;-76
2021/12/31 03:19:21;;;;;;;9.60;6.27;;;;;;;-141.29;100.00;58932.97;5074728;28;20484;-75
2021/12/31 03:21:51;;;;;;;8.50;5.10;;;;;;;-141.29;100.00;58932.97;5074631;28;20565;-74
2021/12/31 03:24:23;;;;;;;8.50;4.87;;;;;;;-141.29;100.00;58932.97;5074353;28;20876;-75
2021/12/31 03:26:51;;;;;;;9.43;5.57;;;;;;;-141.29;100.00;58932.97;5074386;28;20486;-75
2021/12/31 03:29:20;;;;;;;10.30;5.97;;;;;;;-141.29;100.00;58932.97;5073782;28;20458;-74
2021/12/31 03:31:47;;;;;;;10.97;6.10;;;;;;;-141.29;100.00;58932.97;5075061;28;20443;-75
2021/12/31 03:34:14;;;;;;;12.20;6.93;;;;;;;-141.29;100.00;58932.97;5074439;28;20965;-74
2021/12/31 03:36:45;;;;;;;12.00;6.30;;;;;;;-141.29;100.00;58932.97;5073910;28;20538;-73
2021/12/31 03:39:13;;;;;;;9.63;6.10;;;;;;;-141.29;100.00;58932.97;5074204;28;20534;-75
2021/12/31 03:41:44;;;;;;;9.40;5.60;;;;;;;-141.29;100.00;58932.97;5073299;28;20536;-74
2021/12/31 03:44:11;;;;;;;7.33;4.83;;;;;;;-141.29;100.00;58932.97;5074183;28;20441;-77
2021/12/31 03:46:38;;;;;;;8.87;5.20;;;;;;;-141.29;100.00;58932.97;5073694;28;20504;-74
2021/12/31 03:49:08;;;;;;;8.53;5.37;;;;;;;-141.29;100.00;58932.97;5073679;28;20443;-73
2021/12/31 03:51:35;;;;;;;10.67;5.40;;;;;;;-141.29;100.00;58932.97;5073720;28;20575;-75
2021/12/31 03:54:02;;;;;;;9.20;5.93;;;;;;;-141.29;100.00;58932.97;5073630;28;20881;-75
2021/12/31 03:56:34;;;;;;;10.40;6.07;;;;;;;-141.29;100.00;58932.97;5072533;28;20949;-74
2021/12/31 03:59:05;;;;;;;10.93;6.73;;;;;;;-141.29;100.00;58932.97;5073446;28;20447;-74
2021/12/31 04:01:32;;;;;;;10.10;6.27;;;;;;;-141.29;100.00;58932.97;5073703;28;20505;-74
2021/12/31 04:04:00;;;;;;;9.00;5.73;;;;;;;-141.29;100.00;58932.97;5073401;28;20435;-74
2021/12/31 04:06:27;;;;;;;8.33;4.87;;;;;;;-141.29;100.00;58932.97;5073425;28;20443;-74
2021/12/31 04:08:56;;;;;;;8.17;5.50;;;;;;;-141.29;100.00;58932.97;5073549;28;20832;-76
2021/12/31 04:11:24;;;;;;;8.10;5.70;;;;;;;-141.29;100.00;58932.97;5072378;28;20967;-74
2021/12/31 04:13:51;;;;;;;10.33;6.20;;;;;;;-141.29;100.00;58932.97;5077424;28;20447;-73
2021/12/31 04:16:21;;;;;;;9.20;6.33;;;;;;;-141.29;100.00;58932.97;5072419;28;20776;-74
2021/12/31 04:18:49;;;;;;;10.77;6.10;;;;;;;-141.29;100.00;58932.97;5073329;28;20941;-74
2021/12/31 04:21:21;;;;;;;10.13;5.63;;;;;;;-141.29;100.00;58932.97;5072743;28;20450;-75
2021/12/31 04:23:51;;;;;;;9.33;5.70;;;;;;;-141.29;100.00;58932.97;5072826;28;20486;-75
2021/12/31 04:26:19;;;;;;;10.13;6.13;;;;;;;-141.29;100.00;58932.97;5073400;28;20453;-74
2021/12/31 04:28:47;;;;;;;8.60;5.80;;;;;;;-141.29;100.00;58932.97;5071535;28;20861;-74
2021/12/31 04:31:16;;;;;;;8.53;5.70;;;;;;;-141.29;100.00;58932.97;5073635;28;20434;-74
2021/12/31 04:33:44;;;;;;;9.43;5.87;;;;;;;-141.29;100.00;58932.97;5072649;28;20446;-75
2021/12/31 04:36:12;;;;;;;9.57;6.13;;;;;;;-141.29;100.00;58932.97;5072840;28;20447;-74
2021/12/31 04:38:40;;;;;;;8.87;5.63;;;;;;;-141.29;100.00;58932.97;5073167;28;20450;-76
2021/12/31 04:41:07;;;;;;;10.47;6.27;;;;;;;-141.29;100.00;58932.97;5072509;28;20878;-74
2021/12/31 04:43:37;;;;;;;10.90;6.17;;;;;;;-141.29;100.00;58932.97;5072615;28;20494;-74
2021/12/31 04:46:04;;;;;;;9.80;5.70;;;;;;;-141.29;100.00;58932.97;5072714;28;20439;-75
2021/12/31 04:48:32;;;;;;;8.90;6.10;;;;;;;-141.29;100.00;58932.97;5072655;28;20437;-75
2021/12/31 04:51:00;;;;;;;10.43;5.80;;;;;;;-141.29;100.00;58932.97;5072360;28;20438;-76
2021/12/31 04:53:29;;;;;;;10.37;6.40;;;;;;;-141.29;100.00;58932.97;5073142;28;20473;-75
2021/12/31 04:55:56;;;;;;;10.13;6.60;;;;;;;-141.29;100.00;58932.97;5072229;28;20508;-74
2021/12/31 04:58:23;;;;;;;10.27;6.37;;;;;;;-141.29;100.00;58932.97;5072363;28;20800;-76
2021/12/31 05:00:50;;;;;;;9.97;6.27;;;;;;;-141.29;100.00;58932.97;5072231;28;20496;-74
2021/12/31 05:03:18;;;;;;;9.90;6.67;;;;;;;-141.29;100.00;58932.97;5072420;28;20955;-75
2021/12/31 05:05:45;;;;;;;11.33;6.93;;;;;;;-141.29;100.00;58932.97;5072502;28;20533;-75
2021/12/31 05:08:14;;;;;;;11.53;6.77;;;;;;;-141.29;100.00;58932.97;5072379;28;20513;-75
2021/12/31 05:10:44;;;;;;;10.93;6.77;;;;;;;-141.29;100.00;58932.97;5072786;28;20466;-75
2021/12/31 05:13:16;;;;;;;10.90;6.33;;;;;;;-141.29;100.00;58932.97;5072950;28;20437;-74
2021/12/31 05:15:48;;;;;;;9.77;6.57;;;;;;;-141.29;100.00;58932.97;5072493;28;20430;-75
2021/12/31 05:18:19;;;;;;;11.27;6.93;;;;;;;-141.29;100.00;58932.97;5072548;28;20435;-75
2021/12/31 05:20:46;;;;;;;15.03;8.83;;;;;;;-141.29;100.00;58932.97;5072598;28;20505;-76
2021/12/31 05:23:15;;;;;;;15.03;9.17;;;;;;;-141.29;100.00;58932.97;5071506;28;20539;-73
2021/12/31 05:25:43;;;;;;;12.53;7.50;;;;;;;-141.29;100.00;58932.97;5072241;28;20485;-75
2021/12/31 05:28:10;;;;;;;8.97;5.63;;;;;;;-141.29;100.00;58932.97;5072108;28;20434;-75
2021/12/31 05:30:39;;;;;;;9.40;5.30;;;;;;;-141.29;100.00;58932.97;5072042;28;20443;-74
2021/12/31 05:33:06;;;;;;;9.67;5.40;;;;;;;-141.29;100.00;58932.97;5071792;28;20446;-75
2021/12/31 05:35:34;;;;;;;8.87;5.43;;;;;;;-141.29;100.00;58932.97;5071312;28;20455;-74
2021/12/31 05:38:02;;;;;;;10.13;6.10;;;;;;;-141.29;100.00;58932.97;5072343;28;20964;-74
2021/12/31 05:40:31;;;;;;;13.40;5.70;;;;;;;-141.29;100.00;58932.97;5070861;28;20446;-76
2021/12/31 05:42:58;;;;;;;10.70;6.23;;;;;;;-141.29;100.00;58932.97;5071437;28;20872;-76
2021/12/31 05:45:26;;;;;;;8.37;5.60;;;;;;;-141.29;100.00;58932.97;5071818;28;20450;-74
2021/12/31 05:47:53;;;;;;;8.80;5.63;;;;;;;-141.29;100.00;58932.97;5071866;28;20443;-75
2021/12/31 05:50:28;;;;;;;9.63;5.93;;;;;;;-141.29;100.00;58932.97;5072474;28;20443;-75
2021/12/31 05:52:57;;;;;;;11.33;7.00;;;;;;;-141.29;100.00;58932.97;5071928;28;20889;-74
2021/12/31 05:55:28;;;;;;;10.90;6.40;;;;;;;-141.29;100.00;58932.97;5071659;28;20469;-75
2021/12/31 05:58:01;;;;;;;10.17;6.40;;;;;;;-141.29;100.00;58932.97;5072069;28;20500;-75
2021/12/31 06:00:31;;;;;;;12.30;7.10;;;;;;;-141.29;100.00;58932.97;5071688;28;20454;-76
2021/12/31 06:02:59;;;;;;;12.57;7.47;;;;;;;-141.29;100.00;58932.97;5071837;28;20482;-75
2021/12/31 06:05:27;;;;;;;12.60;7.57;;;;;;;-141.29;100.00;58932.97;5071495;28;20449;-74
2021/12/31 06:07:57;;;;;;;12.67;7.60;;;;;;;-141.29;100.00;58932.97;5071220;28;20511;-74
2021/12/31 06:10:27;;;;;;;14.20;7.87;;;;;;;-141.29;100.00;58932.97;5071687;28;20442;-74
2021/12/31 06:13:00;;;;;;;14.30;8.60;;;;;;;-141.29;100.00;58932.97;5071871;28;20475;-75
2021/12/31 06:15:28;;;;;;;19.03;9.20;;;;;;;-141.29;100.00;58932.97;5071769;28;20458;-74
2021/12/31 06:17:55;;;;;;;15.30;9.07;;;;;;;-141.29;100.00;58932.97;5071351;28;20442;-76
2021/12/31 06:20:28;;;;;;;14.40;8.20;;;;;;;-141.29;100.00;58932.97;5072143;28;20438;-76
2021/12/31 06:22:57;;;;;;;14.80;7.77;;;;;;;-141.29;100.00;58932.97;5074765;28;20496;-73
2021/12/31 06:25:26;;;;;;;12.47;8.00;;;;;;;-141.29;100.00;58932.97;5081206;28;20840;-75
2021/12/31 06:27:55;;;;;;;11.97;7.37;;;;;;;-141.29;100.00;58932.97;5075152;28;20450;-74
2021/12/31 06:30:26;;;;;;;11.30;7.07;;;;;;;-141.29;100.00;58932.97;5075345;28;20442;-74
2021/12/31 06:32:54;;;;;;;13.47;7.07;;;;;;;-141.29;100.00;58932.97;5075906;28;20972;-74
2021/12/31 06:35:21;;;;;;;11.50;7.10;;;;;;;-141.29;100.00;58932.97;5075439;28;20480;-74
2021/12/31 06:37:51;;;;;;;15.10;6.53;;;;;;;-141.29;100.00;58932.97;5075275;28;20451;-74
2021/12/31 06:40:18;;;;;;;9.37;6.53;;;;;;;-141.29;100.00;58932.97;5074416;28;20442;-76
2021/12/31 06:42:46;;;;;;;10.77;6.93;;;;;;;-141.29;100.00;58932.97;5074519;28;20482;-74
2021/12/31 06:45:42;;;;;;;12.20;7.07;;;;;;;-141.29;100.00;58932.97;5075114;28;20447;-77
2021/12/31 06:48:10;;;;;;;13.43;7.87;;;;;;;-141.29;100.00;58932.97;5075086;28;20431;-75
2021/12/31 06:50:42;;;;;;;11.80;7.53;;;;;;;-141.29;100.00;58932.97;5074862;28;20496;-75
2021/12/31 06:53:14;;;;;;;13.13;8.13;;;;;;;-141.29;100.00;58932.97;5075097;28;20443;-75
2021/12/31 06:55:42;;;;;;;13.90;8.13;;;;;;;-141.29;100.00;58932.97;5075198;28;20507;-74
2021/12/31 06:58:25;;;;;;;13.83;8.10;;;;;;;-141.29;100.00;58932.97;5075281;28;20442;-74
2021/12/31 07:00:55;;;;;;;10.70;7.23;;;;;;;-141.29;100.00;58932.97;5074388;28;20872;-74
2021/12/31 07:03:22;;;;;;;10.60;7.00;;;;;;;-141.29;100.00;58932.97;5075394;28;20603;-75
2021/12/31 07:05:50;;;;;;;12.17;7.17;;;;;;;-141.29;100.00;58932.97;5073474;28;20878;-76
2021/12/31 07:08:19;;;;;;;11.80;7.77;;;;;;;-141.29;100.00;58932.97;5074590;28;20602;-77
2021/12/31 07:10:48;;;;;;;27.67;7.63;;;;;;;-141.29;100.00;58932.97;5074466;28;20455;-75
2021/12/31 07:13:22;;;;;;;11.47;7.07;;;;;;;-141.29;100.00;58932.97;5074513;28;20469;-76
2021/12/31 07:15:51;;;;;;;11.87;7.30;;;;;;;-141.29;100.00;58932.97;5074937;28;20492;-74
2021/12/31 07:18:24;;;;;;;12.30;7.73;;;;;;;-141.29;100.00;58932.97;5074298;28;21000;-74
2021/12/31 07:20:53;;;;;;;13.80;8.13;;;;;;;-141.29;100.00;58932.97;5074492;28;20450;-75
2021/12/31 07:23:22;;;;;;;14.33;7.90;;;;;;;-141.29;100.00;58932.97;5074843;28;20481;-76
2021/12/31 07:25:51;;;;;;;16.17;8.23;;;;;;;-141.29;100.00;58932.97;5074745;28;20542;-74
2021/12/31 07:28:18;;;;;;;16.40;8.03;;;;;;;-141.29;100.00;58932.97;5074434;28;20537;-73
2021/12/31 07:30:48;;;;;;;11.27;7.27;;;;;;;-141.29;100.00;58932.97;5072697;28;20504;-75
2021/12/31 07:33:17;;;;;;;12.83;7.23;;;;;;;-141.29;100.00;58932.97;5074238;28;21012;-74
2021/12/31 07:35:53;;;;;;;12.93;6.77;;;;;;;-141.29;100.00;58932.97;5073581;28;20488;-75
2021/12/31 07:38:33;;;;;;;12.60;7.40;;;;;;;-141.29;100.00;58932.97;5074612;28;20443;-76
2021/12/31 07:41:01;;;;;;;12.67;7.57;;;;;;;-141.29;100.00;58932.97;5074129;28;20957;-74
2021/12/31 07:43:35;;;;;;;12.27;7.97;;;;;;;-141.29;100.00;58932.97;5073842;28;20601;-74
2021/12/31 07:48:47;;;;;;;15.17;9.63;;;;;;;-141.29;100.00;58932.97;5073987;28;20439;-75
2021/12/31 07:51:20;;;;;;;15.63;9.50;;;;;;;-141.29;100.00;58932.97;5073763;28;20438;-75
2021/12/31 07:53:53;;;;;;;14.93;9.57;;;;;;;-141.29;100.00;58932.97;5074837;28;20489;-74
2021/12/31 07:56:21;;;;;;;21.70;11.70;;;;;;;-141.29;100.00;58932.97;5074942;28;20438;-75
2021/12/31 07:58:55;;;;;;;23.37;14.83;;;;;;;-141.29;100.00;58932.97;5073590;28;20446;-74
2021/12/31 08:01:27;;;;;;;19.23;11.20;;;;;;;-141.29;100.00;58932.97;5072372;28;20445;-76
2021/12/31 08:03:58;;;;;;;17.37;9.87;;;;;;;-141.29;100.00;58932.97;5073395;28;21012;-74
2021/12/31 08:06:29;;;;;;;14.60;9.00;;;;;;;-141.29;100.00;58932.97;5073676;28;20508;-75
2021/12/31 08:08:59;;;;;;;17.57;9.60;;;;;;;-141.29;100.00;58932.97;5073367;28;20442;-74
2021/12/31 08:11:26;;;;;;;14.70;9.07;;;;;;;-141.29;100.00;58932.97;5072066;28;20460;-74
2021/12/31 08:13:55;;;;;;;17.80;9.03;;;;;;;-141.29;100.00;58932.97;5072110;28;20443;-74
2021/12/31 08:16:22;;;;;;;15.37;8.73;;;;;;;-141.29;100.00;58932.97;5072627;28;20450;-75
2021/12/31 08:19:02;;;;;;;17.33;8.57;;;;;;;-141.29;100.00;58932.97;5073222;28;20434;-74
2021/12/31 08:21:34;;;;;;;17.07;8.80;;;;;;;-141.29;100.00;58932.97;5073085;28;21020;-75
2021/12/31 08:24:05;;;;;;;13.90;8.70;;;;;;;-141.29;100.00;58932.97;5072548;28;20514;-74
2021/12/31 08:26:50;;;;;;;14.67;8.87;;;;;;;-141.29;100.00;58932.97;5072960;28;20439;-75
2021/12/31 08:29:25;;;;;;;16.13;8.50;;;;;;;-141.29;100.00;58932.97;5072963;28;20442;-75
2021/12/31 08:31:53;;;;;;;15.00;9.00;;;;;;;-141.29;100.00;58932.97;5074122;28;20856;-75
2021/12/31 08:34:20;;;;;;;14.73;8.80;;;;;;;-141.29;100.00;58932.97;5077485;28;20450;-76
2021/12/31 08:37:02;;;;;;;12.70;8.63;;;;;;;-141.29;100.00;58932.97;5071653;28;20447;-75
2021/12/31 08:39:31;;;;;;;14.17;9.07;;;;;;;-141.29;100.00;58932.97;5073101;28;20485;-75
2021/12/31 08:42:04;;;;;;;13.97;8.67;;;;;;;-141.29;100.00;58932.97;5071279;28;20559;-76
2021/12/31 08:44:31;;;;;;;16.13;9.47;;;;;;;-141.29;100.00;58932.97;5072465;28;21000;-76
2021/12/31 08:46:58;;;;;;;15.60;9.73;;;;;;;-141.29;100.00;58932.97;5071637;28;20504;-74
2021/12/31 08:49:32;;;;;;;19.00;9.87;;;;;;;-141.29;100.00;58932.97;5073342;28;20473;-76
2021/12/31 08:52:06;;;;;;;15.23;10.07;;;;;;;-141.29;100.00;58932.97;5072831;28;20433;-76
2021/12/31 08:54:37;;;;;;;16.40;10.73;;;;;;;-141.29;100.00;58932.97;5073327;28;20434;-74
2021/12/31 08:57:05;;;;;;;16.47;10.03;;;;;;;-141.29;100.00;58932.97;5072218;28;20451;-74
2021/12/31 08:59:38;;;;;;;18.53;9.17;;;;;;;-141.29;100.00;58932.97;5072393;28;20443;-73
2021/12/31 09:02:08;;;;;;;18.10;10.27;;;;;;;-141.29;100.00;58932.97;5072458;28;20991;-75
2021/12/31 09:04:36;;;;;;;20.63;11.00;;;;;;;-141.29;100.00;58932.97;5072347;28;20532;-77
2021/12/31 09:07:05;;;;;;;18.50;11.47;;;;;;;-141.29;100.00;58932.97;5072258;28;20434;-76
2021/12/31 09:09:32;;;;;;;17.67;11.27;;;;;;;-141.29;100.00;58932.97;5072087;28;20445;-74
2021/12/31 09:12:00;;;;;;;24.80;12.63;;;;;;;-141.29;100.00;58932.97;5071883;28;20833;-76
2021/12/31 09:14:27;;;;;;;19.83;11.37;;;;;;;-141.29;100.00;58932.97;5072116;28;20447;-76
2021/12/31 09:16:58;;;;;;;23.60;12.43;;;;;;;-141.29;100.00;58932.97;5072627;28;20530;-75
2021/12/31 09:19:34;;;;;;;23.00;13.10;;;;;;;-141.29;100.00;58932.97;5072462;28;20472;-75
2021/12/31 09:22:01;;;;;;;22.00;12.10;;;;;;;-141.29;100.00;58932.97;5072074;28;20446;-75
2021/12/31 09:24:34;;;;;;;22.53;10.87;;;;;;;-141.29;100.00;58932.97;5071863;28;20593;-75
2021/12/31 09:29:49;;;;;;;19.47;12.40;;;;;;;-141.29;100.00;58932.97;5072375;28;20504;-77
2021/12/31 09:32:16;;;;;;;17.77;10.43;;;;;;;-141.29;100.00;58932.97;5072070;28;20446;-76
2021/12/31 09:34:44;;;;;;;16.93;11.30;;;;;;;-141.29;100.00;58932.97;5071472;28;20442;-75
2021/12/31 09:37:12;;;;;;;18.13;10.70;;;;;;;-141.29;100.00;58932.97;5071751;28;20446;-75
2021/12/31 09:39:42;;;;;;;15.47;9.90;;;;;;;-141.29;100.00;58932.97;5071643;28;20458;-75
2021/12/31 09:42:13;;;;;;;15.90;9.53;;;;;;;-141.29;100.00;58932.97;5071873;28;20474;-75
2021/12/31 09:44:41;;;;;;;19.37;8.70;;;;;;;-141.29;100.00;58932.97;5071791;28;21004;-74
2021/12/31 09:47:18;;;;;;;13.87;8.53;;;;;;;-141.29;100.00;58932.97;5072854;28;20445;-75
2021/12/31 09:49:49;;;;;;;15.30;8.30;;;;;;;-141.29;100.00;58932.97;5070952;28;20435;-74
2021/12/31 09:52:20;;;;;;;15.63;9.80;;;;;;;-141.29;100.00;58932.97;5072012;28;20484;-75
2021/12/31 09:54:50;;;;;;;13.37;8.53;;;;;;;-141.29;100.00;58932.97;5071556;28;20453;-75
2021/12/31 09:57:21;;;;;;;16.70;10.53;;;;;;;-141.29;100.00;58932.97;5072282;28;20498;-74
2021/12/31 09:59:49;;;;;;;13.67;8.53;;;;;;;-141.29;100.00;58932.97;5075662;28;20492;-76
2021/12/31 10:02:30;;;;;;;13.93;8.93;;;;;;;-141.29;100.00;58932.97;5075481;28;20442;-74
2021/12/31 10:04:58;;;;;;;12.63;8.33;;;;;;;-141.29;100.00;58932.97;5075385;28;20505;-76
2021/12/31 10:07:29;;;;;;;13.57;9.23;;;;;;;-141.29;100.00;58932.97;5075423;28;20507;-77
2021/12/31 10:10:11;;;;;;;15.80;9.13;;;;;;;-141.29;100.00;58932.97;5075667;28;20443;-77
2021/12/31 10:12:47;;;;;;;14.70;8.87;;;;;;;-141.29;100.00;58932.97;5075593;28;20438;-75
2021/12/31 10:15:14;;;;;;;15.90;9.10;;;;;;;-141.29;100.00;58932.97;5075746;28;20426;-73
2021/12/31 10:17:48;;;;;;;19.50;9.80;;;;;;;-141.29;100.00;58932.97;5075343;28;20496;-75
2021/12/31 10:20:16;;;;;;;14.80;9.33;;;;;;;-141.29;100.00;58932.97;5075635;28;20499;-76
2021/12/31 10:22:46;;;;;;;13.43;8.57;;;;;;;-141.29;100.00;58932.97;5075099;28;20483;-73
2021/12/31 10:25:39;;;;;;;15.83;9.37;;;;;;;-141.29;100.00;58932.97;5075239;28;20496;-74
2021/12/31 10:28:13;;;;;;;14.83;9.40;;;;;;;-141.29;100.00;58932.97;5075263;28;20478;-76
2021/12/31 10:30:46;;;;;;;18.10;10.23;;;;;;;-141.29;100.00;58932.97;5075418;28;20447;-75
2021/12/31 10:33:17;;;;;;;20.53;10.47;;;;;;;-141.29;100.00;58932.97;5073663;28;20941;-74
2021/12/31 10:35:47;;;;;;;18.00;9.90;;;;;;;-141.29;100.00;58932.97;5075022;28;20865;-75
2021/12/31 10:38:15;;;;;;;17.20;10.30;;;;;;;-141.29;100.00;58932.97;5075256;28;20472;-75
2021/12/31 10:40:46;;;;;;;16.60;10.23;;;;;;;-141.29;100.00;58932.97;5075636;28;20504;-75
2021/12/31 10:43:18;;;;;;;17.90;10.27;;;;;;;-141.29;100.00;58932.97;5080719;28;20527;-74
2021/12/31 10:46:02;;;;;;;13.23;8.73;;;;;;;-141.29;100.00;58932.97;5074953;28;20686;-75
2021/12/31 10:48:46;;;;;;;18.70;10.30;;;;;;;-141.29;100.00;58932.97;5075515;28;20441;-76
2021/12/31 10:51:36;;;;;;;17.67;10.27;;;;;;;-141.29;100.00;58932.97;5074812;28;20287;-75
2021/12/31 10:54:32;;;;;;;18.87;10.70;;;;;;;-141.29;100.00;58932.97;5074703;28;20295;-73
2021/12/31 10:57:09;;;;;;;17.23;10.83;;;;;;;-141.29;100.00;58932.97;5075361;28;20200;-74
2021/12/31 10:59:37;;;;;;;20.07;10.37;;;;;;;-141.29;100.00;58932.97;5074293;28;20204;-75
2021/12/31 11:02:07;;;;;;;17.37;9.80;;;;;;;-141.29;100.00;58932.97;5074446;28;20643;-75
2021/12/31 11:04:36;;;;;;;17.30;10.13;;;;;;;-141.29;100.00;58932.97;5074425;28;20305;-75
2021/12/31 11:07:18;;;;;;;16.67;9.67;;;;;;;-141.29;100.00;58932.97;5074705;28;20283;-75
2021/12/31 11:09:48;;;;;;;17.10;10.37;;;;;;;-141.29;100.00;58932.97;5072640;28;20208;-75
2021/12/31 11:12:25;;;;;;;16.67;8.97;;;;;;;-141.29;100.00;58932.97;5079593;28;20247;-76
2021/12/31 11:14:52;;;;;;;17.17;8.33;;;;;;;-141.29;100.00;58932.97;5079574;28;20216;-77
2021/12/31 11:17:19;;;;;;;12.63;8.03;;;;;;;-141.29;100.00;58932.97;5074275;28;20230;-76
2021/12/31 11:20:00;;;;;;;20.10;9.30;;;;;;;-141.29;100.00;58932.97;5074518;28;20317;-75
2021/12/31 11:22:31;;;;;;;20.00;10.97;;;;;;;-141.29;100.00;58932.97;5074810;28;20192;-76
2021/12/31 11:25:28;;;;;;;19.23;10.77;;;;;;;-141.29;100.00;58932.97;5072945;28;20316;-77